Time;durP1;ratioP1;P1;durP2;ratioP2;P2;SDS_P1;SDS_P2;PMS_P1;PMS_P2;Temp;Humidity;BMP_temperature;BMP_pressure;BME280_temperature;BME280_humidity;BME280_pressure;Samples;Min_cycle;Max_cycle;Signal;HPM_P1;HPM_P2
2022/03/28 00:01:55;;;;;;;30.33;4.32;;;;;;;;;;5068890;28;20521;-63
2022/03/28 00:04:21;;;;;;;24.90;4.05;;;;;;;;;;5070639;28;20063;-63
2022/03/28 00:06:48;;;;;;;31.88;5.20;;;;;;;;;;5076513;28;20255;-62
2022/03/28 00:09:14;;;;;;;23.50;4.00;;;;;;;;;;5079628;28;20049;-62
2022/03/28 00:11:41;;;;;;;21.55;4.25;;;;;;;;;;5073662;28;20132;-62
2022/03/28 00:14:07;;;;;;;23.13;4.75;;;;;;;;;;5089152;28;20056;-62
2022/03/28 00:16:34;;;;;;;24.17;3.95;;;;;;;;;;5087130;28;20502;-62
2022/03/28 00:19:00;;;;;;;22.20;4.22;;;;;;;;;;5078167;28;20661;-62
2022/03/28 00:21:27;;;;;;;21.67;3.83;;;;;;;;;;5089732;28;20136;-62
2022/03/28 00:23:54;;;;;;;23.95;3.63;;;;;;;;;;5073850;28;20063;-62
2022/03/28 00:26:20;;;;;;;19.70;3.92;;;;;;;;;;5069611;28;20063;-62
2022/03/28 00:28:47;;;;;;;21.75;3.90;;;;;;;;;;5074695;28;20502;-62
2022/03/28 00:31:13;;;;;;;20.70;4.45;;;;;;;;;;5087728;28;20072;-62
2022/03/28 00:33:40;;;;;;;20.58;4.22;;;;;;;;;;5087337;28;20080;-62
2022/03/28 00:36:06;;;;;;;30.90;4.65;;;;;;;;;;5089182;28;20148;-62
2022/03/28 00:38:33;;;;;;;17.90;3.72;;;;;;;;;;5069745;28;20151;-61
2022/03/28 00:40:59;;;;;;;17.75;3.67;;;;;;;;;;5071053;28;20080;-62
2022/03/28 00:43:26;;;;;;;17.98;3.90;;;;;;;;;;5083348;28;20416;-63
2022/03/28 00:45:52;;;;;;;21.60;4.00;;;;;;;;;;5087471;28;20044;-62
2022/03/28 00:48:19;;;;;;;22.98;4.78;;;;;;;;;;5076854;28;20059;-62
2022/03/28 00:50:45;;;;;;;22.40;5.50;;;;;;;;;;5086527;28;20057;-63
2022/03/28 00:53:13;;;;;;;21.52;3.97;;;;;;;;;;5069329;28;20250;-63
2022/03/28 00:55:40;;;;;;;22.33;4.22;;;;;;;;;;5084355;28;20416;-63
2022/03/28 00:58:06;;;;;;;25.55;4.55;;;;;;;;;;5079493;28;20139;-62
2022/03/28 01:00:33;;;;;;;15.48;3.63;;;;;;;;;;5068982;28;20052;-63
2022/03/28 01:03:00;;;;;;;23.45;4.22;;;;;;;;;;5069570;28;20466;-62
2022/03/28 01:05:27;;;;;;;24.30;4.57;;;;;;;;;;5069150;28;20053;-62
2022/03/28 01:07:55;;;;;;;18.38;4.38;;;;;;;;;;5071959;28;20996;-62
2022/03/28 01:10:22;;;;;;;25.65;4.63;;;;;;;;;;5072279;28;20053;-63
2022/03/28 01:12:48;;;;;;;21.50;4.35;;;;;;;;;;5072636;28;20478;-62
2022/03/28 01:15:18;;;;;;;14.70;3.80;;;;;;;;;;5076816;28;20147;-62
2022/03/28 01:20:31;;;;;;;25.40;4.45;;;;;;;;;;5068147;28;20053;-63
2022/03/28 01:22:57;;;;;;;19.20;4.30;;;;;;;;;;5076111;28;20543;-62
2022/03/28 01:25:25;;;;;;;19.77;4.68;;;;;;;;;;5070501;28;20963;-62
2022/03/28 01:27:55;;;;;;;19.75;3.78;;;;;;;;;;5069268;28;20100;-62
2022/03/28 01:30:22;;;;;;;19.33;4.72;;;;;;;;;;5068247;28;20149;-63
2022/03/28 01:32:49;;;;;;;25.95;4.40;;;;;;;;;;5081988;28;20493;-62
2022/03/28 01:35:45;;;;;;;17.20;4.53;;;;;;;;;;5084063;28;20148;-62
2022/03/28 01:38:13;;;;;;;17.90;4.07;;;;;;;;;;5080432;28;20164;-62
2022/03/28 01:40:41;;;;;;;16.63;4.25;;;;;;;;;;5068423;28;20088;-63
2022/03/28 01:43:07;;;;;;;18.70;4.57;;;;;;;;;;5076414;28;20152;-61
2022/03/28 01:45:34;;;;;;;23.00;4.90;;;;;;;;;;5067108;28;20465;-62
2022/03/28 01:48:00;;;;;;;23.30;5.72;;;;;;;;;;5070573;28;20052;-62
2022/03/28 01:50:26;;;;;;;18.70;4.40;;;;;;;;;;5085240;28;20605;-62
2022/03/28 01:52:53;;;;;;;21.52;5.35;;;;;;;;;;5068701;28;20175;-62
2022/03/28 01:55:19;;;;;;;16.48;4.70;;;;;;;;;;5078173;28;20478;-62
2022/03/28 01:57:46;;;;;;;24.25;5.60;;;;;;;;;;5081170;28;20192;-62
2022/03/28 02:00:14;;;;;;;15.77;4.72;;;;;;;;;;5086819;28;20163;-62
2022/03/28 02:02:41;;;;;;;18.80;4.50;;;;;;;;;;5080380;28;20080;-62
2022/03/28 02:05:11;;;;;;;21.05;5.07;;;;;;;;;;5067760;28;20057;-63
2022/03/28 02:07:39;;;;;;;20.58;4.93;;;;;;;;;;5066655;28;20549;-62
2022/03/28 02:10:09;;;;;;;18.42;5.82;;;;;;;;;;5067329;28;20942;-62
2022/03/28 02:12:36;;;;;;;20.63;5.40;;;;;;;;;;5073612;28;20580;-62
2022/03/28 02:15:03;;;;;;;26.83;6.68;;;;;;;;;;5086997;28;20076;-62
2022/03/28 02:17:31;;;;;;;20.52;6.25;;;;;;;;;;5085453;28;20063;-62
2022/03/28 02:19:57;;;;;;;19.25;5.60;;;;;;;;;;5087134;28;20063;-63
2022/03/28 02:22:24;;;;;;;24.70;6.05;;;;;;;;;;5085793;28;20063;-62
2022/03/28 02:24:51;;;;;;;20.95;6.30;;;;;;;;;;5086888;28;20051;-62
2022/03/28 02:27:17;;;;;;;20.30;5.80;;;;;;;;;;5082506;28;20053;-62
2022/03/28 02:29:43;;;;;;;22.60;5.85;;;;;;;;;;5080295;28;20135;-62
2022/03/28 02:32:10;;;;;;;22.65;6.18;;;;;;;;;;5077081;28;20053;-62
2022/03/28 02:34:37;;;;;;;24.75;5.80;;;;;;;;;;5066863;28;20052;-62
2022/03/28 02:37:03;;;;;;;19.17;5.90;;;;;;;;;;5066790;28;20156;-62
2022/03/28 02:39:30;;;;;;;17.38;6.80;;;;;;;;;;5067473;28;20136;-62
2022/03/28 02:41:56;;;;;;;17.77;6.47;;;;;;;;;;5072197;28;20087;-62
2022/03/28 02:44:22;;;;;;;18.85;5.75;;;;;;;;;;5078745;28;20499;-62
2022/03/28 02:46:49;;;;;;;22.33;5.88;;;;;;;;;;5074641;28;20049;-62
2022/03/28 02:49:15;;;;;;;20.73;6.13;;;;;;;;;;5066390;28;20144;-62
2022/03/28 02:51:42;;;;;;;20.98;7.35;;;;;;;;;;5067380;28;20055;-62
2022/03/28 02:54:08;;;;;;;17.92;5.70;;;;;;;;;;5067991;28;20123;-62
2022/03/28 02:56:34;;;;;;;18.63;5.68;;;;;;;;;;5066004;28;20144;-62
2022/03/28 02:59:01;;;;;;;16.48;5.57;;;;;;;;;;5066941;28;20056;-62
2022/03/28 03:01:28;;;;;;;18.65;5.90;;;;;;;;;;5074214;28;20485;-62
2022/03/28 03:03:54;;;;;;;16.13;5.40;;;;;;;;;;5082557;28;20055;-62
2022/03/28 03:06:20;;;;;;;13.50;4.88;;;;;;;;;;5086581;28;20052;-62
2022/03/28 03:08:47;;;;;;;14.75;4.80;;;;;;;;;;5069423;28;20053;-62
2022/03/28 03:11:14;;;;;;;13.50;4.15;;;;;;;;;;5078737;28;20137;-62
2022/03/28 03:13:40;;;;;;;13.48;4.40;;;;;;;;;;5066809;28;20175;-62
2022/03/28 03:16:06;;;;;;;10.65;4.25;;;;;;;;;;5066132;28;20156;-62
2022/03/28 03:18:33;;;;;;;9.98;3.88;;;;;;;;;;5082049;28;20048;-62
2022/03/28 03:20:59;;;;;;;11.30;4.40;;;;;;;;;;5086099;28;20064;-62
2022/03/28 03:23:26;;;;;;;8.70;3.90;;;;;;;;;;5070769;28;20080;-62
2022/03/28 03:25:52;;;;;;;14.55;4.38;;;;;;;;;;5066814;28;20511;-62
2022/03/28 03:28:20;;;;;;;13.43;4.40;;;;;;;;;;5072656;28;20059;-62
2022/03/28 03:30:48;;;;;;;16.67;4.78;;;;;;;;;;5086608;28;20141;-62
2022/03/28 03:33:14;;;;;;;27.65;4.70;;;;;;;;;;5084145;28;20143;-62
2022/03/28 03:35:40;;;;;;;36.03;5.18;;;;;;;;;;5087020;28;20127;-62
2022/03/28 03:38:07;;;;;;;38.65;4.78;;;;;;;;;;5082675;28;20654;-62
2022/03/28 03:40:33;;;;;;;35.88;5.70;;;;;;;;;;5066206;28;20195;-62
2022/03/28 03:42:59;;;;;;;65.70;5.68;;;;;;;;;;5064514;28;20152;-62
2022/03/28 03:45:26;;;;;;;50.55;6.55;;;;;;;;;;5077638;28;20135;-62
2022/03/28 03:47:52;;;;;;;59.25;6.40;;;;;;;;;;5067567;28;20061;-62
2022/03/28 03:50:18;;;;;;;56.90;6.68;;;;;;;;;;5073695;28;20048;-62
2022/03/28 03:52:45;;;;;;;52.97;6.80;;;;;;;;;;5083712;28;20139;-62
2022/03/28 03:55:12;;;;;;;77.35;6.70;;;;;;;;;;5066369;28;20076;-62
2022/03/28 03:57:38;;;;;;;49.28;7.13;;;;;;;;;;5071476;28;20541;-63
2022/03/28 04:00:05;;;;;;;61.38;6.70;;;;;;;;;;5081904;28;20471;-62
2022/03/28 04:02:32;;;;;;;56.45;7.82;;;;;;;;;;5081450;28;20143;-62
2022/03/28 04:04:58;;;;;;;63.00;8.85;;;;;;;;;;5084401;28;20057;-62
2022/03/28 04:07:25;;;;;;;77.25;9.20;;;;;;;;;;5065505;28;20053;-62
2022/03/28 04:09:51;;;;;;;63.20;8.05;;;;;;;;;;5066256;28;20436;-62
2022/03/28 04:12:18;;;;;;;86.57;9.85;;;;;;;;;;5071684;28;20063;-62
2022/03/28 04:14:44;;;;;;;38.85;6.75;;;;;;;;;;5085657;28;20127;-62
2022/03/28 04:17:10;;;;;;;51.03;7.53;;;;;;;;;;5070426;28;20053;-62
2022/03/28 04:19:37;;;;;;;56.58;7.60;;;;;;;;;;5065784;28;20148;-62
2022/03/28 04:22:03;;;;;;;34.58;8.05;;;;;;;;;;5082662;28;20155;-62
2022/03/28 04:24:29;;;;;;;69.82;9.38;;;;;;;;;;5086392;28;20054;-62
2022/03/28 04:26:56;;;;;;;79.65;7.88;;;;;;;;;;5081819;28;20059;-62
2022/03/28 04:29:22;;;;;;;60.35;9.25;;;;;;;;;;5083709;28;20082;-62
2022/03/28 04:31:48;;;;;;;47.47;7.88;;;;;;;;;;5070384;28;20529;-62
2022/03/28 04:34:15;;;;;;;60.47;7.88;;;;;;;;;;5068241;28;20060;-62
2022/03/28 04:36:42;;;;;;;56.92;8.05;;;;;;;;;;5069249;28;20144;-62
2022/03/28 04:39:08;;;;;;;62.35;8.88;;;;;;;;;;5068823;28;20049;-62
2022/03/28 04:41:40;;;;;;;60.15;8.60;;;;;;;;;;5068672;28;20122;-62
2022/03/28 04:44:06;;;;;;;81.57;8.73;;;;;;;;;;5071963;28;20141;-62
2022/03/28 04:46:32;;;;;;;77.10;9.38;;;;;;;;;;5088633;28;20423;-62
2022/03/28 04:48:59;;;;;;;70.93;8.43;;;;;;;;;;5071759;28;20140;-62
2022/03/28 04:51:25;;;;;;;76.63;9.55;;;;;;;;;;5068987;28;20049;-62
2022/03/28 04:53:52;;;;;;;41.15;7.65;;;;;;;;;;5069340;28;20056;-62
2022/03/28 04:56:18;;;;;;;77.50;9.90;;;;;;;;;;5068077;28;20049;-62
2022/03/28 04:58:44;;;;;;;68.15;10.10;;;;;;;;;;5067805;28;20214;-62
2022/03/28 05:01:11;;;;;;;50.42;8.82;;;;;;;;;;5067381;28;20499;-62
2022/03/28 05:03:37;;;;;;;72.65;9.40;;;;;;;;;;5076408;28;20087;-62
2022/03/28 05:06:04;;;;;;;42.75;8.48;;;;;;;;;;5077440;28;20128;-62
2022/03/28 05:08:30;;;;;;;51.78;9.30;;;;;;;;;;5082589;28;20049;-62
2022/03/28 05:10:56;;;;;;;54.35;9.00;;;;;;;;;;5067223;28;20073;-62
2022/03/28 05:13:25;;;;;;;89.35;9.90;;;;;;;;;;5066920;28;20068;-62
2022/03/28 05:15:52;;;;;;;48.80;8.75;;;;;;;;;;5071680;28;20522;-62
2022/03/28 05:18:19;;;;;;;77.78;10.10;;;;;;;;;;5068298;28;20432;-62
2022/03/28 05:20:45;;;;;;;48.35;8.82;;;;;;;;;;5068508;28;20049;-62
2022/03/28 05:23:11;;;;;;;68.30;12.32;;;;;;;;;;5087504;28;20610;-62
2022/03/28 05:25:38;;;;;;;69.50;8.77;;;;;;;;;;5086764;28;20136;-62
2022/03/28 05:28:05;;;;;;;102.70;10.40;;;;;;;;;;5084535;28;20149;-62
2022/03/28 05:30:32;;;;;;;65.28;9.30;;;;;;;;;;5088335;28;20095;-62
2022/03/28 05:32:58;;;;;;;64.00;8.75;;;;;;;;;;5085822;28;20130;-62
2022/03/28 05:35:24;;;;;;;76.18;9.70;;;;;;;;;;5073108;28;20459;-62
2022/03/28 05:37:51;;;;;;;75.78;10.38;;;;;;;;;;5077768;28;20057;-62
2022/03/28 05:40:17;;;;;;;63.70;9.25;;;;;;;;;;5068280;28;20152;-62
2022/03/28 05:42:44;;;;;;;72.00;9.32;;;;;;;;;;5067038;28;20056;-62
2022/03/28 05:45:11;;;;;;;42.47;7.97;;;;;;;;;;5068215;28;20502;-62
2022/03/28 05:47:37;;;;;;;49.25;8.73;;;;;;;;;;5070461;28;20071;-62
2022/03/28 05:50:04;;;;;;;96.30;10.00;;;;;;;;;;5073867;28;20131;-62
2022/03/28 05:52:31;;;;;;;50.17;8.10;;;;;;;;;;5088394;28;20144;-62
2022/03/28 05:54:57;;;;;;;63.15;10.50;;;;;;;;;;5088331;28;20056;-62
2022/03/28 05:57:23;;;;;;;51.55;8.52;;;;;;;;;;5087908;28;20159;-62
2022/03/28 05:59:54;;;;;;;128.48;10.07;;;;;;;;;;5069395;28;20057;-62
2022/03/28 06:02:20;;;;;;;112.30;9.38;;;;;;;;;;5067069;28;20937;-62
2022/03/28 06:04:47;;;;;;;81.40;9.02;;;;;;;;;;5068372;28;21362;-62
2022/03/28 06:07:13;;;;;;;103.82;10.63;;;;;;;;;;5069077;28;20056;-62
2022/03/28 06:09:40;;;;;;;72.55;9.77;;;;;;;;;;5066936;28;20525;-62
2022/03/28 06:12:07;;;;;;;89.93;9.00;;;;;;;;;;5068593;28;20135;-62
2022/03/28 06:14:33;;;;;;;96.97;8.82;;;;;;;;;;5067269;28;20155;-62
2022/03/28 06:16:59;;;;;;;124.45;10.05;;;;;;;;;;5067044;28;20056;-62
2022/03/28 06:19:26;;;;;;;98.65;8.75;;;;;;;;;;5069401;28;20053;-63
2022/03/28 06:21:52;;;;;;;69.72;10.88;;;;;;;;;;5081751;28;20596;-62
2022/03/28 06:24:18;;;;;;;64.38;9.07;;;;;;;;;;5068570;28;20175;-63
2022/03/28 06:26:45;;;;;;;70.28;6.82;;;;;;;;;;5084268;28;20080;-62
2022/03/28 06:29:11;;;;;;;84.57;7.75;;;;;;;;;;5086344;28;20044;-63
2022/03/28 06:31:37;;;;;;;71.35;7.90;;;;;;;;;;5075263;28;20184;-64
2022/03/28 06:34:04;;;;;;;84.93;7.80;;;;;;;;;;5087683;28;20063;-62
2022/03/28 06:36:30;;;;;;;124.15;9.00;;;;;;;;;;5076241;28;20076;-65
2022/03/28 06:38:57;;;;;;;44.38;6.53;;;;;;;;;;5070070;28;20052;-62
2022/03/28 06:41:23;;;;;;;55.85;7.72;;;;;;;;;;5069374;28;20092;-61
2022/03/28 06:43:50;;;;;;;76.32;8.38;;;;;;;;;;5070164;28;20051;-65
2022/03/28 06:46:16;;;;;;;73.82;8.70;;;;;;;;;;5074637;28;20172;-65
2022/03/28 06:48:43;;;;;;;60.67;9.02;;;;;;;;;;5081566;28;20456;-63
2022/03/28 06:51:09;;;;;;;87.72;8.48;;;;;;;;;;5087150;28;20151;-63
2022/03/28 06:53:40;;;;;;;54.25;8.90;;;;;;;;;;5085613;28;20504;-64
2022/03/28 06:56:06;;;;;;;66.43;8.30;;;;;;;;;;5087350;28;20175;-63
2022/03/28 06:58:33;;;;;;;60.42;9.25;;;;;;;;;;5087251;28;20131;-63
2022/03/28 07:00:59;;;;;;;33.72;8.98;;;;;;;;;;5086998;28;20048;-63
2022/03/28 07:03:26;;;;;;;56.40;10.18;;;;;;;;;;5086345;28;20058;-63
2022/03/28 07:05:53;;;;;;;66.53;9.93;;;;;;;;;;5087064;28;20155;-63
2022/03/28 07:08:19;;;;;;;73.32;10.20;;;;;;;;;;5087221;28;20091;-63
2022/03/28 07:10:45;;;;;;;61.13;11.48;;;;;;;;;;5086611;28;20052;-63
2022/03/28 07:13:12;;;;;;;99.20;10.23;;;;;;;;;;5082333;28;20056;-62
2022/03/28 07:15:38;;;;;;;78.90;11.23;;;;;;;;;;5066945;28;20061;-63
2022/03/28 07:18:07;;;;;;;58.40;9.65;;;;;;;;;;5080007;28;20113;-63
2022/03/28 07:20:34;;;;;;;108.68;14.60;;;;;;;;;;5092075;27;20152;-63
2022/03/28 07:23:01;;;;;;;141.13;14.63;;;;;;;;;;5077294;28;20627;-63
2022/03/28 07:25:28;;;;;;;100.28;17.17;;;;;;;;;;5077121;28;20961;-63
2022/03/28 07:27:55;;;;;;;88.47;20.58;;;;;;;;;;5082314;28;20084;-63
2022/03/28 07:30:22;;;;;;;91.18;23.20;;;;;;;;;;5092673;28;20139;-63
2022/03/28 07:32:51;;;;;;;92.15;24.23;;;;;;;;;;5099223;28;20130;-63
2022/03/28 07:35:19;;;;;;;111.70;23.00;;;;;;;;;;5099365;28;20139;-63
2022/03/28 07:37:46;;;;;;;86.35;21.42;;;;;;;;;;5088972;27;20159;-63
2022/03/28 07:40:13;;;;;;;61.50;20.60;;;;;;;;;;5093827;27;20139;-63
2022/03/28 07:42:41;;;;;;;74.90;19.90;;;;;;;;;;5095379;27;20053;-63
2022/03/28 07:45:08;;;;;;;129.87;17.23;;;;;;;;;;5096910;28;20142;-62
2022/03/28 07:47:36;;;;;;;99.50;13.67;;;;;;;;;;5087157;28;20660;-62
2022/03/28 07:50:03;;;;;;;75.90;13.13;;;;;;;;;;5100751;27;20048;-62
2022/03/28 07:52:29;;;;;;;69.25;13.68;;;;;;;;;;5079827;28;20179;-62
2022/03/28 07:54:55;;;;;;;71.30;11.77;;;;;;;;;;5092045;28;20217;-62
2022/03/28 07:57:22;;;;;;;82.78;13.43;;;;;;;;;;5085026;27;20052;-62
2022/03/28 07:59:49;;;;;;;53.95;12.43;;;;;;;;;;5087784;28;20106;-62
2022/03/28 08:02:36;;;;;;;42.40;11.85;;;;;;;;;;5074316;28;20511;-63
2022/03/28 08:05:03;;;;;;;78.95;9.95;;;;;;;;;;5096822;27;20055;-63
2022/03/28 08:07:30;;;;;;;73.80;8.63;;;;;;;;;;5110408;27;20047;-62
2022/03/28 08:09:56;;;;;;;86.93;10.57;;;;;;;;;;5089473;27;20052;-63
2022/03/28 08:12:23;;;;;;;68.05;9.73;;;;;;;;;;5071630;28;20064;-63
2022/03/28 08:14:50;;;;;;;35.88;9.57;;;;;;;;;;5089704;28;20102;-63
2022/03/28 08:17:19;;;;;;;79.75;12.77;;;;;;;;;;5103094;28;20575;-63
2022/03/28 08:19:46;;;;;;;38.15;9.82;;;;;;;;;;5083718;27;20067;-63
2022/03/28 08:22:13;;;;;;;47.38;10.45;;;;;;;;;;5091085;27;20057;-63
2022/03/28 08:24:39;;;;;;;30.40;8.70;;;;;;;;;;5100341;28;20048;-63
2022/03/28 08:27:06;;;;;;;43.13;8.48;;;;;;;;;;5095219;27;20143;-63
2022/03/28 08:29:32;;;;;;;37.03;8.20;;;;;;;;;;5082883;28;20059;-63
2022/03/28 08:32:00;;;;;;;71.63;11.07;;;;;;;;;;5095852;27;20058;-63
2022/03/28 08:34:27;;;;;;;41.80;9.60;;;;;;;;;;5100570;27;20053;-63
2022/03/28 08:36:53;;;;;;;30.52;9.20;;;;;;;;;;5084680;28;20052;-63
2022/03/28 08:39:20;;;;;;;34.35;8.57;;;;;;;;;;5086100;28;20053;-63
2022/03/28 08:41:46;;;;;;;30.02;8.90;;;;;;;;;;5075451;28;20512;-62
2022/03/28 08:44:13;;;;;;;19.75;8.80;;;;;;;;;;5096793;27;20151;-63
2022/03/28 08:46:41;;;;;;;67.53;9.35;;;;;;;;;;5096248;27;20059;-63
2022/03/28 08:49:08;;;;;;;65.63;11.20;;;;;;;;;;5089429;28;20075;-63
2022/03/28 08:51:35;;;;;;;28.67;8.63;;;;;;;;;;5089427;28;20057;-63
2022/03/28 08:54:01;;;;;;;37.58;8.95;;;;;;;;;;5086687;28;20211;-63
2022/03/28 08:56:27;;;;;;;32.63;8.75;;;;;;;;;;5096347;27;20433;-63
2022/03/28 08:59:08;;;;;;;37.28;9.50;;;;;;;;;;5070597;28;20142;-63
2022/03/28 09:01:36;;;;;;;27.08;9.18;;;;;;;;;;5093370;28;20172;-63
2022/03/28 09:04:06;;;;;;;47.55;9.40;;;;;;;;;;5109498;27;20528;-63
2022/03/28 09:06:37;;;;;;;27.27;8.57;;;;;;;;;;5095169;27;20057;-63
2022/03/28 09:09:10;;;;;;;29.52;7.70;;;;;;;;;;5090995;28;20057;-63
2022/03/28 09:11:37;;;;;;;22.73;8.20;;;;;;;;;;5079146;28;20107;-63
2022/03/28 09:14:04;;;;;;;33.72;8.45;;;;;;;;;;5086538;28;20061;-63
2022/03/28 09:16:34;;;;;;;25.40;9.15;;;;;;;;;;5098152;28;20059;-63
2022/03/28 09:19:08;;;;;;;19.83;8.77;;;;;;;;;;5076003;27;20053;-62
2022/03/28 09:21:35;;;;;;;27.55;8.63;;;;;;;;;;5068512;28;20175;-63
2022/03/28 09:24:03;;;;;;;21.00;8.48;;;;;;;;;;5069041;28;20057;-63
2022/03/28 09:26:29;;;;;;;22.48;9.68;;;;;;;;;;5089991;28;20081;-63
2022/03/28 09:28:58;;;;;;;23.63;8.50;;;;;;;;;;5100096;28;20067;-63
2022/03/28 09:31:32;;;;;;;25.65;8.77;;;;;;;;;;5091898;27;20102;-63
2022/03/28 09:33:59;;;;;;;22.60;8.95;;;;;;;;;;5093861;27;20462;-63
2022/03/28 09:37:04;;;;;;;24.70;9.63;;;;;;;;;;5086401;28;20143;-63
2022/03/28 09:39:32;;;;;;;29.67;8.13;;;;;;;;;;5065334;28;20053;-63
2022/03/28 09:42:00;;;;;;;22.83;9.23;;;;;;;;;;5065550;28;20152;-63
2022/03/28 09:44:43;;;;;;;29.20;8.77;;;;;;;;;;5073592;28;20059;-63
2022/03/28 09:47:11;;;;;;;43.33;9.73;;;;;;;;;;5096130;28;20506;-62
2022/03/28 09:49:39;;;;;;;26.65;9.60;;;;;;;;;;5068192;28;20049;-62
2022/03/28 09:52:09;;;;;;;19.17;7.75;;;;;;;;;;5080515;28;20073;-63
2022/03/28 09:54:46;;;;;;;23.77;8.70;;;;;;;;;;5070652;28;20084;-63
2022/03/28 09:57:13;;;;;;;22.80;9.43;;;;;;;;;;5073906;28;20045;-62
2022/03/28 09:59:41;;;;;;;28.58;10.98;;;;;;;;;;5085381;28;20052;-62
2022/03/28 10:02:18;;;;;;;29.55;10.65;;;;;;;;;;5092363;27;20048;-60
2022/03/28 10:04:46;;;;;;;27.63;10.27;;;;;;;;;;5102383;27;20048;-63
2022/03/28 10:07:13;;;;;;;32.50;10.38;;;;;;;;;;5092890;27;20144;-61
2022/03/28 10:09:39;;;;;;;36.55;11.40;;;;;;;;;;5104363;28;20477;-62
2022/03/28 10:12:06;;;;;;;32.47;11.77;;;;;;;;;;5086145;28;20044;-61
2022/03/28 10:14:33;;;;;;;34.45;12.00;;;;;;;;;;5099411;27;20090;-61
2022/03/28 10:17:03;;;;;;;34.10;11.50;;;;;;;;;;5094356;27;20053;-61
2022/03/28 10:19:34;;;;;;;30.25;10.77;;;;;;;;;;5081961;28;20123;-61
2022/03/28 10:22:05;;;;;;;29.20;11.13;;;;;;;;;;5099493;27;20153;-62
2022/03/28 10:24:34;;;;;;;36.40;13.45;;;;;;;;;;5082369;28;20052;-62
2022/03/28 10:27:02;;;;;;;34.75;12.90;;;;;;;;;;5100704;28;20433;-62
2022/03/28 10:29:35;;;;;;;37.97;14.27;;;;;;;;;;5088919;27;20087;-62
2022/03/28 10:32:06;;;;;;;31.92;11.50;;;;;;;;;;5082568;28;20550;-62
2022/03/28 10:34:49;;;;;;;26.10;10.45;;;;;;;;;;5092481;27;20114;-62
2022/03/28 10:37:29;;;;;;;29.70;10.95;;;;;;;;;;5078382;28;20106;-62
2022/03/28 10:40:14;;;;;;;23.25;10.40;;;;;;;;;;5076799;28;20143;-62
2022/03/28 10:42:51;;;;;;;28.13;9.50;;;;;;;;;;5087127;28;20131;-62
2022/03/28 10:45:19;;;;;;;24.17;9.40;;;;;;;;;;5085939;28;20444;-62
2022/03/28 10:47:49;;;;;;;22.13;9.63;;;;;;;;;;5073324;28;20058;-62
2022/03/28 10:50:19;;;;;;;22.58;9.07;;;;;;;;;;5078482;27;20063;-62
2022/03/28 10:53:04;;;;;;;21.35;8.80;;;;;;;;;;5075689;28;20132;-62
2022/03/28 10:55:34;;;;;;;26.33;10.20;;;;;;;;;;5102105;28;20897;-62
2022/03/28 10:58:08;;;;;;;20.27;9.23;;;;;;;;;;5073202;28;20908;-62
2022/03/28 11:00:34;;;;;;;21.45;9.68;;;;;;;;;;5079914;28;20594;-62
2022/03/28 11:03:01;;;;;;;23.88;9.50;;;;;;;;;;5095060;28;20571;-62
2022/03/28 11:05:28;;;;;;;21.75;9.85;;;;;;;;;;5106526;27;20495;-62
2022/03/28 11:08:04;;;;;;;22.75;9.38;;;;;;;;;;5087906;28;20138;-62
2022/03/28 11:10:32;;;;;;;21.83;8.55;;;;;;;;;;5087750;27;20074;-62
2022/03/28 11:12:58;;;;;;;;;;;;;;;;;;5101028;28;20052;-62
2022/03/28 11:15:25;;;;;;;22.40;9.57;;;;;;;;;;5089310;28;44751;-62
2022/03/28 11:17:58;;;;;;;27.70;10.43;;;;;;;;;;5084169;27;21004;-62
2022/03/28 11:20:25;;;;;;;19.77;9.30;;;;;;;;;;5098034;27;20067;-63
2022/03/28 11:23:11;;;;;;;19.83;9.00;;;;;;;;;;5087431;28;20505;-62
2022/03/28 11:25:37;;;;;;;28.25;9.90;;;;;;;;;;5072978;28;20537;-62
2022/03/28 11:28:14;;;;;;;27.95;10.35;;;;;;;;;;5082695;27;20598;-62
2022/03/28 11:30:43;;;;;;;27.35;10.73;;;;;;;;;;5086133;27;20064;-62
2022/03/28 11:33:11;;;;;;;25.02;10.63;;;;;;;;;;5087589;28;20143;-62
2022/03/28 11:35:38;;;;;;;25.70;9.75;;;;;;;;;;5102618;28;20056;-62
2022/03/28 11:38:05;;;;;;;27.23;11.00;;;;;;;;;;5085293;28;20152;-62
2022/03/28 11:40:38;;;;;;;30.90;10.93;;;;;;;;;;5099030;28;20080;-62
2022/03/28 11:43:05;;;;;;;23.70;10.18;;;;;;;;;;5091966;27;20149;-62
2022/03/28 11:45:33;;;;;;;24.02;10.05;;;;;;;;;;5106703;28;20059;-62
2022/03/28 11:48:01;;;;;;;24.70;10.83;;;;;;;;;;5086647;28;20064;-62
2022/03/28 11:50:31;;;;;;;30.05;10.05;;;;;;;;;;5085094;28;20052;-62
2022/03/28 11:52:58;;;;;;;30.50;10.88;;;;;;;;;;5084189;28;20049;-62
2022/03/28 11:55:25;;;;;;;29.85;11.55;;;;;;;;;;5073749;28;20056;-61
2022/03/28 12:00:39;;;;;;;24.98;10.30;;;;;;;;;;5078265;28;20048;-61
2022/03/28 12:03:08;;;;;;;22.35;9.45;;;;;;;;;;5088973;28;20057;-61
2022/03/28 12:05:36;;;;;;;20.85;8.57;;;;;;;;;;5086234;28;20103;-61
2022/03/28 12:08:08;;;;;;;27.50;9.38;;;;;;;;;;5086855;28;20135;-60
2022/03/28 12:10:36;;;;;;;23.23;9.90;;;;;;;;;;5090835;27;20055;-61
2022/03/28 12:13:04;;;;;;;23.55;8.77;;;;;;;;;;5097889;28;20137;-64
2022/03/28 12:15:32;;;;;;;19.60;8.05;;;;;;;;;;5082877;27;20052;-62
2022/03/28 12:18:00;;;;;;;23.20;8.15;;;;;;;;;;5088841;27;20076;-61
2022/03/28 12:20:28;;;;;;;23.52;8.68;;;;;;;;;;5086597;28;20925;-61
2022/03/28 12:22:54;;;;;;;23.13;8.80;;;;;;;;;;5079808;28;20640;-62
2022/03/28 12:25:29;;;;;;;25.10;8.93;;;;;;;;;;5099931;28;20052;-60
2022/03/28 12:27:57;;;;;;;22.27;8.43;;;;;;;;;;5092644;28;20129;-61
2022/03/28 12:30:27;;;;;;;19.40;7.90;;;;;;;;;;5104814;27;20074;-61
2022/03/28 12:32:54;;;;;;;22.40;7.88;;;;;;;;;;5092757;27;20147;-61
2022/03/28 12:35:21;;;;;;;19.20;7.53;;;;;;;;;;5089324;28;20084;-61
2022/03/28 12:37:57;;;;;;;22.45;7.82;;;;;;;;;;5075973;28;20143;-61
2022/03/28 12:40:28;;;;;;;16.27;6.53;;;;;;;;;;5095295;27;20061;-62
2022/03/28 12:42:55;;;;;;;20.92;7.43;;;;;;;;;;5097088;28;20067;-61
2022/03/28 12:45:25;;;;;;;18.00;7.30;;;;;;;;;;5090411;27;20128;-61
2022/03/28 12:48:11;;;;;;;17.92;6.45;;;;;;;;;;5074259;28;20143;-61
2022/03/28 12:50:52;;;;;;;17.10;6.45;;;;;;;;;;5097620;27;20064;-61
2022/03/28 12:53:22;;;;;;;16.58;6.30;;;;;;;;;;5097729;28;20152;-61
2022/03/28 12:55:48;;;;;;;17.38;6.65;;;;;;;;;;5071767;28;20091;-62
2022/03/28 12:58:15;;;;;;;16.98;6.35;;;;;;;;;;5084488;28;20147;-62
2022/03/28 13:00:41;;;;;;;20.20;6.45;;;;;;;;;;5087118;27;20133;-59
2022/03/28 13:03:08;;;;;;;19.50;8.07;;;;;;;;;;5099380;28;20056;-60
2022/03/28 13:05:35;;;;;;;16.15;6.75;;;;;;;;;;5088399;27;20056;-60
2022/03/28 13:08:09;;;;;;;17.13;6.68;;;;;;;;;;5077871;28;20139;-60
2022/03/28 13:10:36;;;;;;;16.98;6.63;;;;;;;;;;5074352;28;20056;-62
2022/03/28 13:13:03;;;;;;;15.38;6.50;;;;;;;;;;5075094;28;20053;-65
2022/03/28 13:15:34;;;;;;;19.50;6.63;;;;;;;;;;5095172;28;20053;-62
2022/03/28 13:18:03;;;;;;;17.70;7.28;;;;;;;;;;5093143;27;20060;-60
2022/03/28 13:20:29;;;;;;;14.05;7.25;;;;;;;;;;5073861;28;20057;-61
2022/03/28 13:22:58;;;;;;;19.80;6.65;;;;;;;;;;5067718;28;20191;-60
2022/03/28 13:25:25;;;;;;;;;;;;;;;;;;5084368;28;20528;-61
2022/03/28 13:28:09;;;;;;;18.23;6.93;;;;;;;;;;5075612;28;46206;-60
2022/03/28 13:30:41;;;;;;;17.48;6.65;;;;;;;;;;5102457;27;20067;-61
2022/03/28 13:33:11;;;;;;;19.55;6.70;;;;;;;;;;5085745;28;20044;-61
2022/03/28 13:35:38;;;;;;;16.58;6.43;;;;;;;;;;5086902;28;20162;-61
2022/03/28 13:38:05;;;;;;;16.47;6.57;;;;;;;;;;5073521;28;20144;-61
2022/03/28 13:40:33;;;;;;;19.08;6.63;;;;;;;;;;5079590;28;20087;-61
2022/03/28 13:42:59;;;;;;;12.48;5.93;;;;;;;;;;5081769;28;20596;-62
2022/03/28 13:45:28;;;;;;;20.05;6.43;;;;;;;;;;5103304;28;20172;-61
2022/03/28 13:47:56;;;;;;;15.07;6.05;;;;;;;;;;5103573;27;20420;-61
2022/03/28 13:50:22;;;;;;;18.10;6.50;;;;;;;;;;5081271;28;20231;-61
2022/03/28 13:53:10;;;;;;;16.35;5.82;;;;;;;;;;5089738;28;20052;-62
2022/03/28 13:55:37;;;;;;;16.98;5.95;;;;;;;;;;5104469;28;20581;-62
2022/03/28 13:58:04;;;;;;;15.40;5.70;;;;;;;;;;5093946;28;20821;-61
2022/03/28 14:00:31;;;;;;;14.95;5.45;;;;;;;;;;5093628;27;20519;-62
2022/03/28 14:03:06;;;;;;;15.35;5.40;;;;;;;;;;5107471;28;20053;-62
2022/03/28 14:05:33;;;;;;;15.10;6.20;;;;;;;;;;5101086;27;20101;-61
2022/03/28 14:08:00;;;;;;;17.73;6.78;;;;;;;;;;5087643;27;20052;-61
2022/03/28 14:10:27;;;;;;;12.95;5.88;;;;;;;;;;5089168;28;20125;-61
2022/03/28 14:12:54;;;;;;;16.05;6.70;;;;;;;;;;5107809;27;20096;-62
2022/03/28 14:15:20;;;;;;;20.80;6.60;;;;;;;;;;5091103;27;20052;-62
2022/03/28 14:17:46;;;;;;;17.52;5.95;;;;;;;;;;5087232;28;20125;-62
2022/03/28 14:20:15;;;;;;;19.60;6.45;;;;;;;;;;5089417;27;20049;-62
2022/03/28 14:22:41;;;;;;;20.50;6.55;;;;;;;;;;5101332;28;20055;-62
2022/03/28 14:25:08;;;;;;;18.90;6.50;;;;;;;;;;5108357;27;20834;-62
2022/03/28 14:27:35;;;;;;;16.00;6.00;;;;;;;;;;5087071;28;20139;-62
2022/03/28 14:30:01;;;;;;;19.80;6.30;;;;;;;;;;5086808;27;20062;-62
2022/03/28 14:32:28;;;;;;;18.38;6.43;;;;;;;;;;5073012;28;20064;-62
2022/03/28 14:34:55;;;;;;;18.38;6.82;;;;;;;;;;5081384;28;20478;-62
2022/03/28 14:37:21;;;;;;;13.68;5.95;;;;;;;;;;5100637;28;20919;-62
2022/03/28 14:39:48;;;;;;;19.92;7.38;;;;;;;;;;5090817;28;20048;-62